Terminal Aerodrome Forecast
Issued by NWS Newport/Morehead City, NC

Home | Current Version | Previous Version | Text Only | Print | Product List | Glossary Off
Versions: 1 2 3 4 5 6 7 8 9 10 11 12 13

000
FTUS42 KMHX 180521
TAFEWN
TAF
KEWN 180521Z 1806/1906 21006KT P6SM SKC
     FM181800 22012G20KT P6SM SKC
     FM190300 22010KT P6SM FEW250 WS020/24040KT=

USA.gov is the U.S. government's official web portal to all federal, state and local government web resources and services.